Weather at Nanaimo Harbour Water Airport

Public forecast

Using degrees Celsius for public forecast. Weather courtesy of forecast.io.

Closest aviation weather report (METAR) to Nanaimo Harbour Water Airport

Closest report is Nanaimo Airport, 8.3 nm (15.4 km) SSE. Retrieved 2020/10/19 23:00 UTC (5 minutes ago):

CYCD 192300Z VRB02KT 15SM FEW012 FEW045 BKN110 BKN220 13/10 A3013 RMK CF1CU1AC5CI1 CU TR SLP204

Closest aviation forecast (TAF) to Nanaimo Harbour Water Airport

Closest forecast is Nanaimo Airport, 8.3 nm (15.4 km) SSE. Retrieved 2020/10/19 18:00 UTC (5 hours ago):

TAF CYCD 191738Z 1918/2004 VRB03KT P6SM FEW004 SCT012 BKN040 TEMPO 1918/1921 SCT004 BKN012 FM200000 VRB03KT P6SM SCT015 BKN040 TEMPO 2000/2004 P6SM -SHRA BKN015 RMK NXT FCST BY 200000Z